createdAt,value
2017-10-16T00:01:23.141Z,88.60
2017-10-16T00:03:51.437Z,88.40
2017-10-16T00:06:19.739Z,88.20
2017-10-16T00:08:48.067Z,88.20
2017-10-16T00:11:16.361Z,87.90
2017-10-16T00:13:44.690Z,87.60
2017-10-16T00:16:12.986Z,87.20
2017-10-16T00:18:41.329Z,87.80
2017-10-16T00:21:09.621Z,87.70
2017-10-16T00:23:37.917Z,88.10
2017-10-16T00:26:06.282Z,87.40
2017-10-16T00:28:33.816Z,87.40
2017-10-16T00:31:02.150Z,88.10
2017-10-16T00:33:30.450Z,88.30
2017-10-16T00:35:58.778Z,88.60
2017-10-16T00:38:26.338Z,88.50
2017-10-16T00:40:54.638Z,89.20
2017-10-16T00:43:22.957Z,89.80
2017-10-16T00:45:51.257Z,90.00
2017-10-16T00:48:19.577Z,90.10
2017-10-16T00:50:47.881Z,90.40
2017-10-16T00:53:15.456Z,90.30
2017-10-16T00:55:43.752Z,90.70
2017-10-16T00:58:12.056Z,90.80
2017-10-16T01:00:40.369Z,90.90
2017-10-16T01:03:08.662Z,91.00
2017-10-16T01:05:36.986Z,91.10
2017-10-16T01:08:05.284Z,91.20
2017-10-16T01:10:33.617Z,91.10
2017-10-16T01:13:01.149Z,91.10
2017-10-16T01:15:29.448Z,91.10
2017-10-16T01:17:57.770Z,91.20
2017-10-16T01:20:26.070Z,91.10
2017-10-16T01:22:54.393Z,91.20
2017-10-16T01:25:22.684Z,91.20
2017-10-16T01:27:51.009Z,91.20
2017-10-16T01:30:19.306Z,91.30
2017-10-16T01:32:47.644Z,91.50
2017-10-16T01:35:18.857Z,91.50
2017-10-16T01:37:47.204Z,91.50
2017-10-16T01:40:15.508Z,91.60
2017-10-16T01:42:43.809Z,92.10
2017-10-16T01:45:12.129Z,91.80
2017-10-16T01:47:40.425Z,91.90
2017-10-16T01:50:08.741Z,91.90
2017-10-16T01:52:37.032Z,92.00
2017-10-16T01:55:05.417Z,92.00
2017-10-16T01:57:33.718Z,92.00
2017-10-16T02:00:02.081Z,92.00
2017-10-16T02:02:30.388Z,92.00
2017-10-16T02:04:58.685Z,92.00
2017-10-16T02:07:27.007Z,91.90
2017-10-16T02:09:55.304Z,91.90
2017-10-16T02:12:22.854Z,91.90
2017-10-16T02:14:51.153Z,91.90
2017-10-16T02:17:19.506Z,91.90
2017-10-16T02:19:47.808Z,91.90
2017-10-16T02:22:16.104Z,91.90
2017-10-16T02:24:44.421Z,91.90
2017-10-16T02:27:12.713Z,92.10
2017-10-16T02:29:41.039Z,92.10
2017-10-16T02:32:09.328Z,91.90
2017-10-16T02:34:37.666Z,91.90
2017-10-16T02:37:05.973Z,91.90
2017-10-16T02:39:34.274Z,91.90
2017-10-16T02:42:02.603Z,91.90
2017-10-16T02:44:30.133Z,91.90
2017-10-16T02:46:58.454Z,91.90
2017-10-16T02:49:26.748Z,91.90
2017-10-16T02:51:55.086Z,92.00
2017-10-16T02:54:23.394Z,92.10
2017-10-16T02:56:51.697Z,92.00
2017-10-16T02:59:20.025Z,91.90
2017-10-16T03:01:48.321Z,92.00
2017-10-16T03:04:16.648Z,92.20
2017-10-16T03:06:44.944Z,92.10
2017-10-16T03:09:13.240Z,92.00
2017-10-16T03:11:41.562Z,92.40
2017-10-16T03:14:09.869Z,92.50
2017-10-16T03:16:38.205Z,92.20
2017-10-16T03:19:06.506Z,92.10
2017-10-16T03:21:34.856Z,92.20
2017-10-16T03:24:03.156Z,92.20
2017-10-16T03:26:31.458Z,92.30
2017-10-16T03:28:59.782Z,92.40
2017-10-16T03:31:28.077Z,92.20
2017-10-16T03:33:56.400Z,92.20
2017-10-16T03:36:24.692Z,92.10
2017-10-16T03:38:53.024Z,92.10
2017-10-16T03:41:21.325Z,92.10
2017-10-16T03:43:49.636Z,92.20
2017-10-16T03:46:17.954Z,92.10
2017-10-16T03:48:46.255Z,92.20
2017-10-16T03:51:14.579Z,92.10
2017-10-16T03:53:42.881Z,92.20
2017-10-16T03:56:11.268Z,92.30
2017-10-16T03:58:39.572Z,92.20
2017-10-16T04:01:07.873Z,92.10
2017-10-16T04:03:36.240Z,92.10
2017-10-16T04:06:04.539Z,92.10
2017-10-16T04:08:32.861Z,92.00
2017-10-16T04:11:01.156Z,92.00
2017-10-16T04:13:29.489Z,91.90
2017-10-16T04:15:57.790Z,92.00
2017-10-16T04:18:26.112Z,92.10
2017-10-16T04:20:54.438Z,92.30
2017-10-16T04:23:22.734Z,92.40
2017-10-16T04:25:51.061Z,92.40
2017-10-16T04:28:19.359Z,92.50
2017-10-16T04:30:47.697Z,92.40
2017-10-16T04:33:15.994Z,92.30
2017-10-16T04:35:44.289Z,92.30
2017-10-16T04:38:12.613Z,92.30
2017-10-16T04:40:40.909Z,92.70
2017-10-16T04:43:09.222Z,92.50
2017-10-16T04:45:37.538Z,92.40
2017-10-16T04:48:05.879Z,92.40
2017-10-16T04:50:34.185Z,92.30
2017-10-16T04:53:02.493Z,92.30
2017-10-16T04:55:30.826Z,92.40
2017-10-16T04:57:59.123Z,92.50
2017-10-16T05:00:27.438Z,92.40
2017-10-16T05:02:55.740Z,92.40
2017-10-16T05:05:24.058Z,92.30
2017-10-16T05:07:52.365Z,92.30
2017-10-16T05:10:19.942Z,92.30
2017-10-16T05:12:48.246Z,92.20
2017-10-16T05:15:15.790Z,92.20
2017-10-16T05:17:44.118Z,92.10
2017-10-16T05:20:12.416Z,92.10
2017-10-16T05:22:40.741Z,92.10
2017-10-16T05:25:09.037Z,92.10
2017-10-16T05:27:37.369Z,92.10
2017-10-16T05:30:05.673Z,92.20
2017-10-16T05:32:33.978Z,92.10
2017-10-16T05:35:02.298Z,92.10
2017-10-16T05:37:30.597Z,92.10
2017-10-16T05:39:58.913Z,92.20
2017-10-16T05:42:27.218Z,92.20
2017-10-16T05:44:55.573Z,92.20
2017-10-16T05:47:23.865Z,92.20
2017-10-16T05:49:52.165Z,92.30
2017-10-16T05:52:20.490Z,92.40
2017-10-16T05:54:48.790Z,92.30
2017-10-16T05:57:17.134Z,92.40
2017-10-16T05:59:45.434Z,92.60
2017-10-16T06:02:13.742Z,92.70
2017-10-16T06:04:42.056Z,92.80
2017-10-16T06:07:10.353Z,92.70
2017-10-16T06:09:38.673Z,92.70
2017-10-16T06:12:06.977Z,92.70
2017-10-16T06:14:35.300Z,92.70
2017-10-16T06:17:03.613Z,92.80
2017-10-16T06:19:32.037Z,92.90
2017-10-16T06:22:00.343Z,92.80
2017-10-16T06:24:28.644Z,92.70
2017-10-16T06:26:56.964Z,92.80
2017-10-16T06:29:25.266Z,92.90
2017-10-16T06:31:53.580Z,93.00
2017-10-16T06:34:21.873Z,93.00
2017-10-16T06:36:50.225Z,92.80
2017-10-16T06:39:19.305Z,92.70
2017-10-16T06:41:47.601Z,92.70
2017-10-16T06:44:15.921Z,92.60
2017-10-16T06:46:44.230Z,92.70
2017-10-16T06:49:12.550Z,92.70
2017-10-16T06:51:40.849Z,92.70
2017-10-16T06:54:09.189Z,92.70
2017-10-16T06:56:37.489Z,92.50
2017-10-16T06:59:05.786Z,92.30
2017-10-16T07:01:34.117Z,92.30
2017-10-16T07:04:02.445Z,92.20
2017-10-16T07:06:30.762Z,92.10
2017-10-16T07:08:59.070Z,92.00
2017-10-16T07:11:27.369Z,91.90
2017-10-16T07:13:55.693Z,91.80
2017-10-16T07:16:23.998Z,91.70
2017-10-16T07:18:52.325Z,91.60
2017-10-16T07:21:20.617Z,91.60
2017-10-16T07:23:48.938Z,91.50
2017-10-16T07:26:17.242Z,91.40
2017-10-16T07:28:45.584Z,91.30
2017-10-16T07:31:13.880Z,91.10
2017-10-16T07:33:42.178Z,91.00
2017-10-16T07:36:10.510Z,90.90
2017-10-16T07:38:38.806Z,90.80
2017-10-16T07:41:07.125Z,90.70
2017-10-16T07:43:35.426Z,90.50
2017-10-16T07:46:03.778Z,90.40
2017-10-16T07:48:32.105Z,90.30
2017-10-16T07:51:00.404Z,90.30
2017-10-16T07:53:28.728Z,90.20
2017-10-16T07:55:57.034Z,90.10
2017-10-16T07:58:25.356Z,90.00
2017-10-16T08:00:53.657Z,89.60
2017-10-16T08:03:21.968Z,89.00
2017-10-16T08:05:50.265Z,88.70
2017-10-16T08:08:18.609Z,88.40
2017-10-16T08:10:46.919Z,88.10
2017-10-16T08:13:15.222Z,88.20
2017-10-16T08:15:43.541Z,87.80
2017-10-16T08:18:11.840Z,87.60
2017-10-16T08:20:40.230Z,87.80
2017-10-16T08:23:08.529Z,88.80
2017-10-16T08:25:36.890Z,88.80
2017-10-16T08:28:05.194Z,89.20
2017-10-16T08:30:33.513Z,89.10
2017-10-16T08:33:01.809Z,87.80
2017-10-16T08:35:30.148Z,86.60
2017-10-16T08:37:58.444Z,84.90
2017-10-16T08:40:26.742Z,82.80
2017-10-16T08:42:55.056Z,81.10
2017-10-16T08:45:23.348Z,79.70
2017-10-16T08:47:51.669Z,78.50
2017-10-16T08:50:19.981Z,78.50
2017-10-16T08:52:48.315Z,76.40
2017-10-16T08:55:16.609Z,75.40
2017-10-16T08:57:44.909Z,74.50
2017-10-16T09:00:13.220Z,73.80
2017-10-16T09:02:41.509Z,73.00
2017-10-16T09:05:09.822Z,72.30
2017-10-16T09:07:38.176Z,71.60
2017-10-16T09:10:06.512Z,71.00
2017-10-16T09:12:34.078Z,71.00
2017-10-16T09:15:02.426Z,69.80
2017-10-16T09:17:30.808Z,69.40
2017-10-16T09:19:59.108Z,68.60
2017-10-16T09:22:27.417Z,67.80
2017-10-16T09:24:55.722Z,67.70
2017-10-16T09:27:24.051Z,67.60
2017-10-16T09:29:52.377Z,67.70
2017-10-16T09:32:20.665Z,66.90
2017-10-16T09:34:48.989Z,66.30
2017-10-16T09:37:17.293Z,66.20
2017-10-16T09:39:45.608Z,66.00
2017-10-16T09:42:13.890Z,65.10
2017-10-16T09:44:42.216Z,64.50
2017-10-16T09:47:10.515Z,64.20
2017-10-16T09:49:38.809Z,63.40
2017-10-16T09:52:07.121Z,62.90
2017-10-16T09:54:35.421Z,62.90
2017-10-16T09:57:03.738Z,62.30
2017-10-16T09:59:32.056Z,62.50
2017-10-16T10:02:00.373Z,60.70
2017-10-16T10:04:27.902Z,60.60
2017-10-16T10:06:56.229Z,59.30
2017-10-16T10:09:24.524Z,58.60
2017-10-16T10:11:52.041Z,58.60
2017-10-16T10:14:19.629Z,57.90
2017-10-16T10:16:47.933Z,56.70
2017-10-16T10:19:16.262Z,55.90
2017-10-16T10:21:44.553Z,55.30
2017-10-16T10:24:12.887Z,55.30
2017-10-16T10:26:41.188Z,55.30
2017-10-16T10:29:09.484Z,54.60
2017-10-16T10:31:37.797Z,54.20
2017-10-16T10:34:06.105Z,53.70
2017-10-16T10:36:34.434Z,54.00
2017-10-16T10:39:04.763Z,53.50
2017-10-16T10:41:33.085Z,52.60
2017-10-16T10:44:01.392Z,51.80
2017-10-16T10:46:29.709Z,51.00
2017-10-16T10:48:58.005Z,50.70
2017-10-16T10:51:26.345Z,50.80
2017-10-16T10:53:54.643Z,50.30
2017-10-16T10:56:22.949Z,50.80
2017-10-16T10:58:51.266Z,50.80
2017-10-16T11:01:19.576Z,50.70
2017-10-16T11:03:47.124Z,50.70
2017-10-16T11:06:15.435Z,50.50
2017-10-16T11:08:43.771Z,50.90
2017-10-16T11:11:12.067Z,50.90
2017-10-16T11:13:40.394Z,50.50
2017-10-16T11:16:08.713Z,49.90
2017-10-16T11:18:37.006Z,49.90
2017-10-16T11:21:05.320Z,49.90
2017-10-16T11:23:33.648Z,49.70
2017-10-16T11:26:01.961Z,49.40
2017-10-16T11:28:30.257Z,49.10
2017-10-16T11:30:58.545Z,48.80
2017-10-16T11:33:26.861Z,48.50
2017-10-16T11:35:55.149Z,48.50
2017-10-16T11:38:23.462Z,48.00
2017-10-16T11:40:51.760Z,47.40
2017-10-16T11:43:20.102Z,47.10
2017-10-16T11:45:48.381Z,46.80
2017-10-16T11:48:16.681Z,46.20
2017-10-16T11:50:44.995Z,46.00
2017-10-16T11:53:13.284Z,46.00
2017-10-16T11:55:41.585Z,45.70
2017-10-16T11:58:09.874Z,45.90
2017-10-16T12:00:38.196Z,46.40
2017-10-16T12:03:06.485Z,46.80
2017-10-16T12:05:34.004Z,46.80
2017-10-16T12:08:02.313Z,46.60
2017-10-16T12:10:30.600Z,46.20
2017-10-16T12:12:58.145Z,46.20
2017-10-16T12:15:26.433Z,46.60
2017-10-16T12:17:54.761Z,46.60
2017-10-16T12:20:23.044Z,46.60
2017-10-16T12:22:51.341Z,46.90
2017-10-16T12:25:19.653Z,46.70
2017-10-16T12:27:47.949Z,46.70
2017-10-16T12:30:16.261Z,46.80
2017-10-16T12:32:44.549Z,46.60
2017-10-16T12:35:12.876Z,46.70
2017-10-16T12:37:40.397Z,46.60
2017-10-16T12:40:08.688Z,46.80
2017-10-16T12:42:37.001Z,46.70
2017-10-16T12:45:05.302Z,46.60
2017-10-16T12:47:33.623Z,46.40
2017-10-16T12:50:01.945Z,45.10
2017-10-16T12:52:30.287Z,45.30
2017-10-16T12:54:58.598Z,45.20
2017-10-16T12:57:26.889Z,45.10
2017-10-16T12:59:55.223Z,45.30
2017-10-16T13:02:23.513Z,44.90
2017-10-16T13:04:55.235Z,44.80
2017-10-16T13:07:23.534Z,45.00
2017-10-16T13:09:51.856Z,45.20
2017-10-16T13:12:20.150Z,45.10
2017-10-16T13:14:48.445Z,45.30
2017-10-16T13:17:16.761Z,45.20
2017-10-16T13:19:45.049Z,44.70
2017-10-16T13:22:13.360Z,45.20
2017-10-16T13:24:40.882Z,44.60
2017-10-16T13:27:09.213Z,44.10
2017-10-16T13:29:37.513Z,43.70
2017-10-16T13:32:05.806Z,43.80
2017-10-16T13:34:34.136Z,44.30
2017-10-16T13:37:03.170Z,44.30
2017-10-16T13:39:31.473Z,44.20
2017-10-16T13:41:59.769Z,44.30
2017-10-16T13:44:28.102Z,44.60
2017-10-16T13:46:56.384Z,44.60
2017-10-16T13:49:24.674Z,44.70
2017-10-16T13:51:52.983Z,44.60
2017-10-16T13:54:21.277Z,44.80
2017-10-16T13:56:49.608Z,44.70
2017-10-16T13:59:18.341Z,44.80
2017-10-16T14:01:46.673Z,44.30
2017-10-16T14:04:17.838Z,44.20
2017-10-16T14:06:47.073Z,44.30
2017-10-16T14:09:15.372Z,44.10
2017-10-16T14:11:43.674Z,44.10
2017-10-16T14:14:11.978Z,44.30
2017-10-16T14:16:40.362Z,44.00
2017-10-16T14:19:08.668Z,44.10
2017-10-16T14:21:36.970Z,44.00
2017-10-16T14:24:05.289Z,44.40
2017-10-16T14:26:33.592Z,44.20
2017-10-16T14:29:01.914Z,44.00
2017-10-16T14:31:30.212Z,43.90
2017-10-16T14:33:58.529Z,43.80
2017-10-16T14:36:26.826Z,43.70
2017-10-16T14:38:55.118Z,43.60
2017-10-16T14:41:23.429Z,43.70
2017-10-16T14:43:51.718Z,43.80
2017-10-16T14:46:20.046Z,43.60
2017-10-16T14:48:48.340Z,43.80
2017-10-16T14:51:16.668Z,44.00
2017-10-16T14:53:44.956Z,44.30
2017-10-16T14:56:13.256Z,44.80
2017-10-16T14:58:41.568Z,44.70
2017-10-16T15:01:12.248Z,44.60
2017-10-16T15:03:40.578Z,44.50
2017-10-16T15:06:08.886Z,44.40
2017-10-16T15:08:37.209Z,44.60
2017-10-16T15:11:05.515Z,44.60
2017-10-16T15:13:33.849Z,44.50
2017-10-16T15:16:02.146Z,44.50
2017-10-16T15:18:30.514Z,44.80
2017-10-16T15:20:58.841Z,44.80
2017-10-16T15:23:27.137Z,44.50
2017-10-16T15:25:55.444Z,44.80
2017-10-16T15:28:23.741Z,45.00
2017-10-16T15:30:52.070Z,45.10
2017-10-16T15:33:20.365Z,45.50
2017-10-16T15:35:48.688Z,46.10
2017-10-16T15:38:16.991Z,46.40
2017-10-16T15:40:45.322Z,46.90
2017-10-16T15:43:13.613Z,47.40
2017-10-16T15:45:41.912Z,47.70
2017-10-16T15:48:10.225Z,48.10
2017-10-16T15:50:38.517Z,48.90
2017-10-16T15:53:06.825Z,49.50
2017-10-16T15:55:35.108Z,50.50
2017-10-16T15:58:03.421Z,51.40
2017-10-16T16:00:31.725Z,52.70
2017-10-16T16:03:00.041Z,52.40
2017-10-16T16:05:28.333Z,52.80
2017-10-16T16:07:56.646Z,53.00
2017-10-16T16:10:24.948Z,53.10
2017-10-16T16:12:53.269Z,53.60
2017-10-16T16:15:21.566Z,54.30
2017-10-16T16:17:49.913Z,55.10
2017-10-16T16:20:18.213Z,55.80
2017-10-16T16:22:47.550Z,56.40
2017-10-16T16:25:15.846Z,56.80
2017-10-16T16:27:46.999Z,57.30
2017-10-16T16:30:15.293Z,57.90
2017-10-16T16:32:43.617Z,58.50
2017-10-16T16:35:11.933Z,59.30
2017-10-16T16:37:40.265Z,59.90
2017-10-16T16:40:08.579Z,60.50
2017-10-16T16:42:36.921Z,61.40
2017-10-16T16:45:05.216Z,62.20
2017-10-16T16:47:33.506Z,63.10
2017-10-16T16:50:01.821Z,64.00
2017-10-16T16:52:30.113Z,64.90
2017-10-16T16:54:58.435Z,65.50
2017-10-16T16:57:26.733Z,65.30
2017-10-16T16:59:55.053Z,66.30
2017-10-16T17:02:23.349Z,66.60
2017-10-16T17:04:51.668Z,67.40
2017-10-16T17:07:19.969Z,67.30
2017-10-16T17:09:48.289Z,67.50
2017-10-16T17:12:16.595Z,67.80
2017-10-16T17:14:44.908Z,68.10
2017-10-16T17:17:13.200Z,68.30
2017-10-16T17:19:41.521Z,68.80
2017-10-16T17:22:09.812Z,69.10
2017-10-16T17:24:38.141Z,69.50
2017-10-16T17:27:05.705Z,69.40
2017-10-16T17:29:34.020Z,71.00
2017-10-16T17:32:02.315Z,71.30
2017-10-16T17:34:30.657Z,71.70
2017-10-16T17:36:58.948Z,72.30
2017-10-16T17:39:27.244Z,73.90
2017-10-16T17:41:55.556Z,73.50
2017-10-16T17:44:23.844Z,73.90
2017-10-16T17:46:52.160Z,74.30
2017-10-16T17:49:20.448Z,74.60
2017-10-16T17:51:48.004Z,74.60
2017-10-16T17:54:16.302Z,75.50
2017-10-16T17:56:44.622Z,75.80
2017-10-16T17:59:12.918Z,76.10
2017-10-16T18:01:41.364Z,76.50
2017-10-16T18:04:09.667Z,76.60
2017-10-16T18:06:37.989Z,76.90
2017-10-16T18:09:06.285Z,77.30
2017-10-16T18:11:34.772Z,78.00
2017-10-16T18:14:03.070Z,78.40
2017-10-16T18:16:31.410Z,78.50
2017-10-16T18:18:59.716Z,78.70
2017-10-16T18:21:28.035Z,79.00
2017-10-16T18:23:56.355Z,79.40
2017-10-16T18:26:24.669Z,79.60
2017-10-16T18:28:52.970Z,79.90
2017-10-16T18:31:21.373Z,80.20
2017-10-16T18:33:49.693Z,80.30
2017-10-16T18:36:17.986Z,80.70
2017-10-16T18:38:46.354Z,81.00
2017-10-16T18:41:14.658Z,81.10
2017-10-16T18:43:42.968Z,81.30
2017-10-16T18:46:11.281Z,81.40
2017-10-16T18:48:39.596Z,81.70
2017-10-16T18:51:07.894Z,81.80
2017-10-16T18:53:35.515Z,81.80
2017-10-16T18:56:03.852Z,82.30
2017-10-16T18:58:32.174Z,82.60
2017-10-16T19:01:00.468Z,82.70
2017-10-16T19:03:28.786Z,82.80
2017-10-16T19:05:57.091Z,83.00
2017-10-16T19:08:25.414Z,83.10
2017-10-16T19:10:53.720Z,83.50
2017-10-16T19:13:22.033Z,83.00
2017-10-16T19:15:50.329Z,84.10
2017-10-16T19:18:18.646Z,83.30
2017-10-16T19:20:46.942Z,83.30
2017-10-16T19:23:15.362Z,83.60
2017-10-16T19:25:43.665Z,83.80
2017-10-16T19:28:12.043Z,84.30
2017-10-16T19:30:40.368Z,84.80
2017-10-16T19:33:08.735Z,84.80
2017-10-16T19:35:37.073Z,84.90
2017-10-16T19:38:05.460Z,84.90
2017-10-16T19:40:33.792Z,85.00
2017-10-16T19:43:02.623Z,85.50
2017-10-16T19:45:30.998Z,85.50
2017-10-16T19:47:59.368Z,85.70
2017-10-16T19:50:27.691Z,86.00
2017-10-16T19:52:55.986Z,85.80
2017-10-16T19:55:24.313Z,86.00
2017-10-16T19:57:52.616Z,86.10
2017-10-16T20:00:21.016Z,86.10
2017-10-16T20:02:49.326Z,86.20
2017-10-16T20:05:17.653Z,86.50
2017-10-16T20:07:45.966Z,86.40
2017-10-16T20:10:14.288Z,86.40
2017-10-16T20:12:42.597Z,86.50
2017-10-16T20:15:10.930Z,86.60
2017-10-16T20:17:39.229Z,86.50
2017-10-16T20:20:07.570Z,86.60
2017-10-16T20:22:35.885Z,86.70
2017-10-16T20:25:04.192Z,86.90
2017-10-16T20:27:33.113Z,86.80
2017-10-16T20:30:02.191Z,86.80
2017-10-16T20:32:30.608Z,87.10
2017-10-16T20:34:59.038Z,87.20
2017-10-16T20:37:27.454Z,87.20
2017-10-16T20:39:55.769Z,87.30
2017-10-16T20:42:23.325Z,87.30
2017-10-16T20:44:51.646Z,87.20
2017-10-16T20:47:19.942Z,87.30
2017-10-16T20:49:48.441Z,88.20
2017-10-16T20:52:16.736Z,87.70
2017-10-16T20:54:45.073Z,87.50
2017-10-16T20:57:13.364Z,87.50
2017-10-16T20:59:41.660Z,87.70
2017-10-16T21:02:09.982Z,87.70
2017-10-16T21:04:38.311Z,87.90
2017-10-16T21:07:06.641Z,88.00
2017-10-16T21:09:34.951Z,88.40
2017-10-16T21:12:03.297Z,88.40
2017-10-16T21:14:31.606Z,88.50
2017-10-16T21:16:59.897Z,88.40
2017-10-16T21:19:28.224Z,88.60
2017-10-16T21:21:56.521Z,88.40
2017-10-16T21:24:24.833Z,88.50
2017-10-16T21:26:53.160Z,88.60
2017-10-16T21:29:21.488Z,88.50
2017-10-16T21:31:49.789Z,88.40
2017-10-16T21:34:18.095Z,88.50
2017-10-16T21:36:46.412Z,88.60
2017-10-16T21:39:14.713Z,88.70
2017-10-16T21:41:43.029Z,88.40
2017-10-16T21:44:11.330Z,88.20
2017-10-16T21:46:39.670Z,87.90
2017-10-16T21:49:07.974Z,87.70
2017-10-16T21:51:36.277Z,87.30
2017-10-16T21:54:04.596Z,87.20
2017-10-16T21:56:32.920Z,86.90
2017-10-16T21:59:01.246Z,86.80
2017-10-16T22:01:29.541Z,86.80
2017-10-16T22:03:57.868Z,86.80
2017-10-16T22:06:26.168Z,86.90
2017-10-16T22:08:54.460Z,87.60
2017-10-16T22:11:22.787Z,87.10
2017-10-16T22:13:51.089Z,87.10
2017-10-16T22:16:19.414Z,87.10
2017-10-16T22:18:47.713Z,87.20
2017-10-16T22:21:16.046Z,87.30
2017-10-16T22:23:44.355Z,87.40
2017-10-16T22:26:12.656Z,87.40
2017-10-16T22:28:40.968Z,87.40
2017-10-16T22:31:09.265Z,87.50
2017-10-16T22:33:37.593Z,87.60
2017-10-16T22:36:05.897Z,87.80
2017-10-16T22:38:34.253Z,87.90
2017-10-16T22:41:02.556Z,87.90
2017-10-16T22:43:30.852Z,88.00
2017-10-16T22:45:59.180Z,87.90
2017-10-16T22:48:42.349Z,89.00
2017-10-16T22:51:10.674Z,88.40
2017-10-16T22:53:38.973Z,88.70
2017-10-16T22:56:06.530Z,88.70
2017-10-16T22:58:34.082Z,88.90
2017-10-16T23:01:02.413Z,88.90
2017-10-16T23:03:30.717Z,89.00
2017-10-16T23:05:58.245Z,89.00
2017-10-16T23:08:26.574Z,88.90
2017-10-16T23:10:54.876Z,89.00
2017-10-16T23:13:23.194Z,89.10
2017-10-16T23:15:51.498Z,89.20
2017-10-16T23:18:19.792Z,89.40
2017-10-16T23:20:48.110Z,89.40
2017-10-16T23:23:16.404Z,89.40
2017-10-16T23:25:44.716Z,89.50
2017-10-16T23:28:13.018Z,89.40
2017-10-16T23:30:41.356Z,89.40
2017-10-16T23:33:09.656Z,89.50
2017-10-16T23:35:37.949Z,89.50
2017-10-16T23:38:06.269Z,89.50
2017-10-16T23:40:34.570Z,89.50
2017-10-16T23:43:03.680Z,90.00
2017-10-16T23:45:31.975Z,90.00
2017-10-16T23:48:00.309Z,90.00
2017-10-16T23:50:28.614Z,90.10
2017-10-16T23:52:56.905Z,90.30
2017-10-16T23:55:25.230Z,90.20
2017-10-16T23:57:53.525Z,90.10
